sensor_id;sensor_type;location;lat;lon;timestamp;P1;durP1;ratioP1;P2;durP2;ratioP2
28431;SDS011;15664;51.302;7.744;2022-09-06T00:01:38;4.97;;;2.27;;
28431;SDS011;15664;51.302;7.744;2022-09-06T00:04:03;4.77;;;2.30;;
28431;SDS011;15664;51.302;7.744;2022-09-06T00:06:28;5.10;;;2.27;;
28431;SDS011;15664;51.302;7.744;2022-09-06T00:08:54;5.55;;;2.40;;
28431;SDS011;15664;51.302;7.744;2022-09-06T00:11:19;6.07;;;2.30;;
28431;SDS011;15664;51.302;7.744;2022-09-06T00:13:45;6.63;;;2.17;;
28431;SDS011;15664;51.302;7.744;2022-09-06T00:16:15;4.15;;;2.03;;
28431;SDS011;15664;51.302;7.744;2022-09-06T00:18:43;4.60;;;2.37;;
28431;SDS011;15664;51.302;7.744;2022-09-06T00:21:28;7.53;;;2.40;;
28431;SDS011;15664;51.302;7.744;2022-09-06T00:23:54;5.05;;;2.25;;
28431;SDS011;15664;51.302;7.744;2022-09-06T00:26:20;4.97;;;2.30;;
28431;SDS011;15664;51.302;7.744;2022-09-06T00:28:46;5.07;;;2.13;;
28431;SDS011;15664;51.302;7.744;2022-09-06T00:33:42;4.60;;;2.30;;
28431;SDS011;15664;51.302;7.744;2022-09-06T00:36:08;5.18;;;2.40;;
28431;SDS011;15664;51.302;7.744;2022-09-06T00:38:35;5.25;;;2.25;;
28431;SDS011;15664;51.302;7.744;2022-09-06T00:41:01;4.50;;;2.40;;
28431;SDS011;15664;51.302;7.744;2022-09-06T00:43:27;6.23;;;2.37;;
28431;SDS011;15664;51.302;7.744;2022-09-06T00:45:53;4.25;;;2.20;;
28431;SDS011;15664;51.302;7.744;2022-09-06T00:48:19;6.67;;;2.40;;
28431;SDS011;15664;51.302;7.744;2022-09-06T00:50:45;5.38;;;2.38;;
28431;SDS011;15664;51.302;7.744;2022-09-06T00:53:13;5.85;;;2.25;;
28431;SDS011;15664;51.302;7.744;2022-09-06T00:55:38;4.40;;;2.27;;
28431;SDS011;15664;51.302;7.744;2022-09-06T00:58:07;5.43;;;2.42;;
28431;SDS011;15664;51.302;7.744;2022-09-06T01:00:33;6.07;;;2.35;;
28431;SDS011;15664;51.302;7.744;2022-09-06T01:02:58;5.27;;;2.30;;
28431;SDS011;15664;51.302;7.744;2022-09-06T01:05:25;5.30;;;2.33;;
28431;SDS011;15664;51.302;7.744;2022-09-06T01:08:14;4.53;;;2.33;;
28431;SDS011;15664;51.302;7.744;2022-09-06T01:23:13;5.13;;;2.60;;
28431;SDS011;15664;51.302;7.744;2022-09-06T01:25:51;4.82;;;2.55;;
28431;SDS011;15664;51.302;7.744;2022-09-06T01:28:35;5.05;;;2.22;;
28431;SDS011;15664;51.302;7.744;2022-09-06T01:33:49;5.13;;;2.42;;
28431;SDS011;15664;51.302;7.744;2022-09-06T01:36:32;5.03;;;2.53;;
28431;SDS011;15664;51.302;7.744;2022-09-06T01:39:03;5.20;;;2.60;;
28431;SDS011;15664;51.302;7.744;2022-09-06T01:41:28;5.80;;;2.60;;
28431;SDS011;15664;51.302;7.744;2022-09-06T01:43:54;4.50;;;2.47;;
28431;SDS011;15664;51.302;7.744;2022-09-06T01:51:53;6.47;;;2.70;;
28431;SDS011;15664;51.302;7.744;2022-09-06T02:00:21;7.70;;;3.35;;
28431;SDS011;15664;51.302;7.744;2022-09-06T02:05:53;6.33;;;3.00;;
28431;SDS011;15664;51.302;7.744;2022-09-06T02:08:28;6.97;;;2.60;;
28431;SDS011;15664;51.302;7.744;2022-09-06T02:11:08;5.47;;;2.60;;
28431;SDS011;15664;51.302;7.744;2022-09-06T02:13:36;6.68;;;2.47;;
28431;SDS011;15664;51.302;7.744;2022-09-06T02:16:05;5.57;;;2.50;;
28431;SDS011;15664;51.302;7.744;2022-09-06T02:18:37;4.73;;;2.20;;
28431;SDS011;15664;51.302;7.744;2022-09-06T02:21:07;5.05;;;2.70;;
28431;SDS011;15664;51.302;7.744;2022-09-06T02:23:36;7.43;;;3.10;;
28431;SDS011;15664;51.302;7.744;2022-09-06T02:26:08;5.03;;;2.63;;
28431;SDS011;15664;51.302;7.744;2022-09-06T02:28:38;6.88;;;2.90;;
28431;SDS011;15664;51.302;7.744;2022-09-06T02:31:15;5.90;;;2.70;;
28431;SDS011;15664;51.302;7.744;2022-09-06T02:33:46;6.28;;;2.92;;
28431;SDS011;15664;51.302;7.744;2022-09-06T02:36:12;5.23;;;2.80;;
28431;SDS011;15664;51.302;7.744;2022-09-06T02:38:41;12.00;;;3.00;;
28431;SDS011;15664;51.302;7.744;2022-09-06T02:41:08;5.93;;;2.70;;
28431;SDS011;15664;51.302;7.744;2022-09-06T02:43:34;5.30;;;2.63;;
28431;SDS011;15664;51.302;7.744;2022-09-06T02:45:59;5.23;;;2.83;;
28431;SDS011;15664;51.302;7.744;2022-09-06T02:48:25;7.67;;;3.00;;
28431;SDS011;15664;51.302;7.744;2022-09-06T02:50:50;5.05;;;2.65;;
28431;SDS011;15664;51.302;7.744;2022-09-06T02:53:15;7.85;;;2.88;;
28431;SDS011;15664;51.302;7.744;2022-09-06T02:55:41;4.77;;;2.70;;
28431;SDS011;15664;51.302;7.744;2022-09-06T02:58:07;5.33;;;2.87;;
28431;SDS011;15664;51.302;7.744;2022-09-06T03:00:34;6.80;;;2.60;;
28431;SDS011;15664;51.302;7.744;2022-09-06T03:03:00;6.93;;;2.80;;
28431;SDS011;15664;51.302;7.744;2022-09-06T03:05:25;5.43;;;3.03;;
28431;SDS011;15664;51.302;7.744;2022-09-06T03:07:52;5.65;;;2.97;;
28431;SDS011;15664;51.302;7.744;2022-09-06T03:10:18;7.37;;;2.60;;
28431;SDS011;15664;51.302;7.744;2022-09-06T03:12:44;5.50;;;2.50;;
28431;SDS011;15664;51.302;7.744;2022-09-06T03:15:10;5.88;;;2.45;;
28431;SDS011;15664;51.302;7.744;2022-09-06T03:17:38;5.70;;;2.13;;
28431;SDS011;15664;51.302;7.744;2022-09-06T03:20:03;4.70;;;2.33;;
28431;SDS011;15664;51.302;7.744;2022-09-06T03:22:30;7.00;;;3.13;;
28431;SDS011;15664;51.302;7.744;2022-09-06T03:24:55;4.67;;;2.30;;
28431;SDS011;15664;51.302;7.744;2022-09-06T03:27:21;5.87;;;2.67;;
28431;SDS011;15664;51.302;7.744;2022-09-06T03:29:47;5.50;;;2.72;;
28431;SDS011;15664;51.302;7.744;2022-09-06T03:32:12;5.23;;;2.50;;
28431;SDS011;15664;51.302;7.744;2022-09-06T03:34:37;7.07;;;2.53;;
28431;SDS011;15664;51.302;7.744;2022-09-06T03:37:03;4.90;;;2.53;;
28431;SDS011;15664;51.302;7.744;2022-09-06T03:39:28;5.67;;;2.70;;
28431;SDS011;15664;51.302;7.744;2022-09-06T03:41:53;6.50;;;2.90;;
28431;SDS011;15664;51.302;7.744;2022-09-06T03:44:19;6.33;;;2.50;;
28431;SDS011;15664;51.302;7.744;2022-09-06T03:46:44;5.10;;;2.55;;
28431;SDS011;15664;51.302;7.744;2022-09-06T03:49:10;5.35;;;2.70;;
28431;SDS011;15664;51.302;7.744;2022-09-06T03:51:35;6.30;;;2.53;;
28431;SDS011;15664;51.302;7.744;2022-09-06T03:54:01;6.17;;;3.00;;
28431;SDS011;15664;51.302;7.744;2022-09-06T03:56:26;5.22;;;2.80;;
28431;SDS011;15664;51.302;7.744;2022-09-06T03:58:51;7.38;;;2.80;;
28431;SDS011;15664;51.302;7.744;2022-09-06T04:01:17;4.63;;;2.30;;
28431;SDS011;15664;51.302;7.744;2022-09-06T04:03:42;7.37;;;2.83;;
28431;SDS011;15664;51.302;7.744;2022-09-06T04:06:07;5.17;;;2.40;;
28431;SDS011;15664;51.302;7.744;2022-09-06T04:08:33;7.78;;;2.83;;
28431;SDS011;15664;51.302;7.744;2022-09-06T04:10:59;5.50;;;2.63;;
28431;SDS011;15664;51.302;7.744;2022-09-06T04:13:25;7.90;;;3.20;;
28431;SDS011;15664;51.302;7.744;2022-09-06T04:15:51;4.80;;;2.40;;
28431;SDS011;15664;51.302;7.744;2022-09-06T04:18:17;6.00;;;2.85;;
28431;SDS011;15664;51.302;7.744;2022-09-06T04:20:44;6.17;;;2.97;;
28431;SDS011;15664;51.302;7.744;2022-09-06T04:23:12;6.82;;;2.50;;
28431;SDS011;15664;51.302;7.744;2022-09-06T04:25:37;7.70;;;3.07;;
28431;SDS011;15664;51.302;7.744;2022-09-06T04:28:03;6.07;;;2.80;;
28431;SDS011;15664;51.302;7.744;2022-09-06T04:30:28;5.90;;;2.97;;
28431;SDS011;15664;51.302;7.744;2022-09-06T04:32:53;5.88;;;2.67;;
28431;SDS011;15664;51.302;7.744;2022-09-06T04:35:19;5.23;;;2.57;;
28431;SDS011;15664;51.302;7.744;2022-09-06T04:37:44;5.07;;;2.67;;
28431;SDS011;15664;51.302;7.744;2022-09-06T04:40:09;6.97;;;2.80;;
28431;SDS011;15664;51.302;7.744;2022-09-06T04:42:35;5.60;;;3.40;;
28431;SDS011;15664;51.302;7.744;2022-09-06T04:45:00;5.20;;;2.70;;
28431;SDS011;15664;51.302;7.744;2022-09-06T04:47:25;5.10;;;2.77;;
28431;SDS011;15664;51.302;7.744;2022-09-06T04:49:51;5.78;;;2.70;;
28431;SDS011;15664;51.302;7.744;2022-09-06T04:52:17;6.93;;;3.20;;
28431;SDS011;15664;51.302;7.744;2022-09-06T04:54:42;7.03;;;3.20;;
28431;SDS011;15664;51.302;7.744;2022-09-06T04:57:08;7.38;;;2.90;;
28431;SDS011;15664;51.302;7.744;2022-09-06T04:59:33;6.95;;;3.05;;
28431;SDS011;15664;51.302;7.744;2022-09-06T05:01:58;6.30;;;2.90;;
28431;SDS011;15664;51.302;7.744;2022-09-06T05:04:24;5.83;;;2.77;;
28431;SDS011;15664;51.302;7.744;2022-09-06T05:06:58;6.37;;;3.10;;
28431;SDS011;15664;51.302;7.744;2022-09-06T05:09:31;5.90;;;2.90;;
28431;SDS011;15664;51.302;7.744;2022-09-06T05:11:57;6.50;;;2.70;;
28431;SDS011;15664;51.302;7.744;2022-09-06T05:14:23;6.20;;;2.90;;
28431;SDS011;15664;51.302;7.744;2022-09-06T05:16:48;5.43;;;2.60;;
28431;SDS011;15664;51.302;7.744;2022-09-06T05:19:17;5.40;;;2.90;;
28431;SDS011;15664;51.302;7.744;2022-09-06T05:21:43;6.13;;;2.80;;
28431;SDS011;15664;51.302;7.744;2022-09-06T05:24:08;6.88;;;2.70;;
28431;SDS011;15664;51.302;7.744;2022-09-06T05:26:34;6.97;;;2.88;;
28431;SDS011;15664;51.302;7.744;2022-09-06T05:28:59;5.38;;;2.80;;
28431;SDS011;15664;51.302;7.744;2022-09-06T05:33:51;9.20;;;3.20;;
28431;SDS011;15664;51.302;7.744;2022-09-06T05:36:18;7.30;;;3.03;;
28431;SDS011;15664;51.302;7.744;2022-09-06T05:38:44;5.47;;;2.90;;
28431;SDS011;15664;51.302;7.744;2022-09-06T05:41:09;10.97;;;3.47;;
28431;SDS011;15664;51.302;7.744;2022-09-06T05:43:34;17.03;;;4.23;;
28431;SDS011;15664;51.302;7.744;2022-09-06T05:45:59;7.47;;;3.07;;
28431;SDS011;15664;51.302;7.744;2022-09-06T05:48:25;5.77;;;2.70;;
28431;SDS011;15664;51.302;7.744;2022-09-06T05:51:00;6.40;;;2.58;;
28431;SDS011;15664;51.302;7.744;2022-09-06T05:53:31;5.83;;;2.50;;
28431;SDS011;15664;51.302;7.744;2022-09-06T05:55:58;4.55;;;2.28;;
28431;SDS011;15664;51.302;7.744;2022-09-06T05:58:23;7.37;;;2.50;;
28431;SDS011;15664;51.302;7.744;2022-09-06T06:00:49;5.47;;;2.57;;
28431;SDS011;15664;51.302;7.744;2022-09-06T06:03:14;6.22;;;2.50;;
28431;SDS011;15664;51.302;7.744;2022-09-06T06:05:39;6.55;;;2.72;;
28431;SDS011;15664;51.302;7.744;2022-09-06T06:08:05;5.55;;;2.60;;
28431;SDS011;15664;51.302;7.744;2022-09-06T06:10:30;5.45;;;2.55;;
28431;SDS011;15664;51.302;7.744;2022-09-06T06:12:56;5.80;;;2.87;;
28431;SDS011;15664;51.302;7.744;2022-09-06T06:15:21;5.60;;;2.40;;
28431;SDS011;15664;51.302;7.744;2022-09-06T06:17:46;8.25;;;2.97;;
28431;SDS011;15664;51.302;7.744;2022-09-06T06:20:12;7.55;;;2.78;;
28431;SDS011;15664;51.302;7.744;2022-09-06T06:22:37;5.90;;;2.90;;
28431;SDS011;15664;51.302;7.744;2022-09-06T06:25:03;6.13;;;2.50;;
28431;SDS011;15664;51.302;7.744;2022-09-06T06:27:28;6.88;;;2.15;;
28431;SDS011;15664;51.302;7.744;2022-09-06T06:29:54;5.70;;;2.57;;
28431;SDS011;15664;51.302;7.744;2022-09-06T06:32:19;6.30;;;2.63;;
28431;SDS011;15664;51.302;7.744;2022-09-06T06:34:44;5.80;;;2.57;;
28431;SDS011;15664;51.302;7.744;2022-09-06T06:37:10;5.80;;;2.80;;
28431;SDS011;15664;51.302;7.744;2022-09-06T06:39:35;8.43;;;2.97;;
28431;SDS011;15664;51.302;7.744;2022-09-06T06:42:00;5.33;;;2.40;;
28431;SDS011;15664;51.302;7.744;2022-09-06T06:44:39;5.30;;;2.70;;
28431;SDS011;15664;51.302;7.744;2022-09-06T06:47:04;5.73;;;2.60;;
28431;SDS011;15664;51.302;7.744;2022-09-06T06:49:29;8.17;;;2.80;;
28431;SDS011;15664;51.302;7.744;2022-09-06T06:51:55;6.77;;;2.83;;
28431;SDS011;15664;51.302;7.744;2022-09-06T06:54:20;5.63;;;2.57;;
28431;SDS011;15664;51.302;7.744;2022-09-06T06:56:45;8.23;;;2.60;;
28431;SDS011;15664;51.302;7.744;2022-09-06T06:59:11;6.80;;;2.67;;
28431;SDS011;15664;51.302;7.744;2022-09-06T07:01:36;9.03;;;2.70;;
28431;SDS011;15664;51.302;7.744;2022-09-06T07:04:02;6.10;;;2.50;;
28431;SDS011;15664;51.302;7.744;2022-09-06T07:06:28;5.18;;;2.40;;
28431;SDS011;15664;51.302;7.744;2022-09-06T07:08:57;5.65;;;2.20;;
28431;SDS011;15664;51.302;7.744;2022-09-06T07:11:22;7.38;;;2.35;;
28431;SDS011;15664;51.302;7.744;2022-09-06T07:13:48;4.45;;;2.20;;
28431;SDS011;15664;51.302;7.744;2022-09-06T07:16:16;5.03;;;2.75;;
28431;SDS011;15664;51.302;7.744;2022-09-06T07:18:46;5.22;;;2.10;;
28431;SDS011;15664;51.302;7.744;2022-09-06T07:21:15;7.03;;;2.58;;
28431;SDS011;15664;51.302;7.744;2022-09-06T07:23:43;4.77;;;2.20;;
28431;SDS011;15664;51.302;7.744;2022-09-06T07:26:15;4.55;;;2.00;;
28431;SDS011;15664;51.302;7.744;2022-09-06T07:28:42;4.70;;;2.10;;
28431;SDS011;15664;51.302;7.744;2022-09-06T07:31:07;4.77;;;1.90;;
28431;SDS011;15664;51.302;7.744;2022-09-06T07:33:34;4.80;;;2.30;;
28431;SDS011;15664;51.302;7.744;2022-09-06T07:36:00;3.80;;;1.98;;
28431;SDS011;15664;51.302;7.744;2022-09-06T07:38:27;5.93;;;2.10;;
28431;SDS011;15664;51.302;7.744;2022-09-06T07:40:57;4.28;;;2.30;;
28431;SDS011;15664;51.302;7.744;2022-09-06T07:43:24;4.18;;;2.00;;
28431;SDS011;15664;51.302;7.744;2022-09-06T07:46:24;4.10;;;2.05;;
28431;SDS011;15664;51.302;7.744;2022-09-06T07:48:43;5.90;;;1.95;;
28431;SDS011;15664;51.302;7.744;2022-09-06T07:51:10;5.05;;;1.83;;
28431;SDS011;15664;51.302;7.744;2022-09-06T07:53:44;5.63;;;1.75;;
28431;SDS011;15664;51.302;7.744;2022-09-06T07:56:14;3.95;;;1.67;;
28431;SDS011;15664;51.302;7.744;2022-09-06T07:58:40;4.25;;;1.80;;
28431;SDS011;15664;51.302;7.744;2022-09-06T08:03:41;5.35;;;1.92;;
28431;SDS011;15664;51.302;7.744;2022-09-06T08:06:06;4.50;;;2.10;;
28431;SDS011;15664;51.302;7.744;2022-09-06T08:08:32;6.00;;;2.07;;
28431;SDS011;15664;51.302;7.744;2022-09-06T08:10:57;4.37;;;2.13;;
28431;SDS011;15664;51.302;7.744;2022-09-06T08:13:22;3.80;;;2.10;;
28431;SDS011;15664;51.302;7.744;2022-09-06T08:15:47;4.73;;;1.93;;
28431;SDS011;15664;51.302;7.744;2022-09-06T08:18:13;3.77;;;1.80;;
28431;SDS011;15664;51.302;7.744;2022-09-06T08:20:38;7.68;;;1.85;;
28431;SDS011;15664;51.302;7.744;2022-09-06T08:23:09;4.77;;;1.87;;
28431;SDS011;15664;51.302;7.744;2022-09-06T08:25:35;5.22;;;2.20;;
28431;SDS011;15664;51.302;7.744;2022-09-06T08:28:00;6.20;;;1.92;;
28431;SDS011;15664;51.302;7.744;2022-09-06T08:30:25;5.10;;;2.23;;
28431;SDS011;15664;51.302;7.744;2022-09-06T08:32:52;6.18;;;2.05;;
28431;SDS011;15664;51.302;7.744;2022-09-06T08:35:18;4.90;;;1.77;;
28431;SDS011;15664;51.302;7.744;2022-09-06T08:37:43;3.67;;;1.60;;
28431;SDS011;15664;51.302;7.744;2022-09-06T08:40:08;3.60;;;1.90;;
28431;SDS011;15664;51.302;7.744;2022-09-06T08:42:36;3.20;;;1.50;;
28431;SDS011;15664;51.302;7.744;2022-09-06T08:45:03;5.35;;;1.75;;
28431;SDS011;15664;51.302;7.744;2022-09-06T08:47:33;3.30;;;1.70;;
28431;SDS011;15664;51.302;7.744;2022-09-06T08:50:00;6.35;;;1.73;;
28431;SDS011;15664;51.302;7.744;2022-09-06T08:52:44;5.07;;;1.40;;
28431;SDS011;15664;51.302;7.744;2022-09-06T08:55:32;4.65;;;1.92;;
28431;SDS011;15664;51.302;7.744;2022-09-06T09:01:05;4.65;;;1.35;;
28431;SDS011;15664;51.302;7.744;2022-09-06T09:03:36;4.20;;;1.60;;
28431;SDS011;15664;51.302;7.744;2022-09-06T09:06:04;4.47;;;1.40;;
28431;SDS011;15664;51.302;7.744;2022-09-06T09:11:02;2.83;;;1.52;;
28431;SDS011;15664;51.302;7.744;2022-09-06T09:13:37;3.25;;;1.40;;
28431;SDS011;15664;51.302;7.744;2022-09-06T09:16:08;3.08;;;1.30;;
28431;SDS011;15664;51.302;7.744;2022-09-06T09:18:38;3.47;;;1.10;;
28431;SDS011;15664;51.302;7.744;2022-09-06T09:21:07;2.97;;;1.30;;
28431;SDS011;15664;51.302;7.744;2022-09-06T09:23:33;3.03;;;1.10;;
28431;SDS011;15664;51.302;7.744;2022-09-06T09:26:01;5.13;;;1.50;;
28431;SDS011;15664;51.302;7.744;2022-09-06T09:28:29;6.05;;;1.30;;
28431;SDS011;15664;51.302;7.744;2022-09-06T09:30:54;3.00;;;1.20;;
28431;SDS011;15664;51.302;7.744;2022-09-06T09:33:21;2.50;;;1.15;;
28431;SDS011;15664;51.302;7.744;2022-09-06T09:36:00;3.10;;;1.20;;
28431;SDS011;15664;51.302;7.744;2022-09-06T09:38:29;2.35;;;1.08;;
28431;SDS011;15664;51.302;7.744;2022-09-06T09:41:04;2.53;;;1.13;;
28431;SDS011;15664;51.302;7.744;2022-09-06T09:43:35;2.88;;;1.08;;
28431;SDS011;15664;51.302;7.744;2022-09-06T09:48:59;2.60;;;0.88;;
28431;SDS011;15664;51.302;7.744;2022-09-06T09:51:26;3.95;;;1.42;;
28431;SDS011;15664;51.302;7.744;2022-09-06T09:53:56;3.00;;;1.33;;
28431;SDS011;15664;51.302;7.744;2022-09-06T09:56:32;1.70;;;0.95;;
28431;SDS011;15664;51.302;7.744;2022-09-06T09:59:01;3.50;;;0.75;;
28431;SDS011;15664;51.302;7.744;2022-09-06T10:01:31;3.35;;;1.00;;
28431;SDS011;15664;51.302;7.744;2022-09-06T10:04:04;2.42;;;0.98;;
28431;SDS011;15664;51.302;7.744;2022-09-06T10:06:32;2.92;;;1.00;;
28431;SDS011;15664;51.302;7.744;2022-09-06T10:08:58;2.40;;;1.00;;
28431;SDS011;15664;51.302;7.744;2022-09-06T10:11:39;2.35;;;1.10;;
28431;SDS011;15664;51.302;7.744;2022-09-06T10:14:23;1.30;;;0.80;;
28431;SDS011;15664;51.302;7.744;2022-09-06T10:17:04;3.28;;;1.10;;
28431;SDS011;15664;51.302;7.744;2022-09-06T10:19:35;3.42;;;1.30;;
28431;SDS011;15664;51.302;7.744;2022-09-06T10:22:13;5.53;;;1.15;;
28431;SDS011;15664;51.302;7.744;2022-09-06T10:27:26;3.53;;;1.10;;
28431;SDS011;15664;51.302;7.744;2022-09-06T10:29:57;2.90;;;1.10;;
28431;SDS011;15664;51.302;7.744;2022-09-06T10:40:45;3.33;;;1.27;;
28431;SDS011;15664;51.302;7.744;2022-09-06T10:43:17;2.58;;;1.20;;
28431;SDS011;15664;51.302;7.744;2022-09-06T10:45:57;3.75;;;1.13;;
28431;SDS011;15664;51.302;7.744;2022-09-06T10:48:30;2.38;;;1.40;;
28431;SDS011;15664;51.302;7.744;2022-09-06T10:50:56;3.78;;;1.50;;
28431;SDS011;15664;51.302;7.744;2022-09-06T11:04:36;2.28;;;1.13;;
28431;SDS011;15664;51.302;7.744;2022-09-06T11:07:04;2.72;;;1.20;;
28431;SDS011;15664;51.302;7.744;2022-09-06T11:09:43;5.38;;;1.13;;
28431;SDS011;15664;51.302;7.744;2022-09-06T11:12:20;3.13;;;1.23;;
28431;SDS011;15664;51.302;7.744;2022-09-06T11:14:56;2.28;;;1.30;;
28431;SDS011;15664;51.302;7.744;2022-09-06T11:17:31;3.55;;;1.20;;
28431;SDS011;15664;51.302;7.744;2022-09-06T11:25:22;4.85;;;1.40;;
28431;SDS011;15664;51.302;7.744;2022-09-06T11:28:14;2.97;;;1.52;;
28431;SDS011;15664;51.302;7.744;2022-09-06T11:30:44;4.20;;;1.77;;
28431;SDS011;15664;51.302;7.744;2022-09-06T11:35:52;4.38;;;1.42;;
28431;SDS011;15664;51.302;7.744;2022-09-06T11:38:37;2.55;;;1.40;;
28431;SDS011;15664;51.302;7.744;2022-09-06T11:41:03;2.37;;;1.37;;
28431;SDS011;15664;51.302;7.744;2022-09-06T11:43:44;3.78;;;1.50;;
28431;SDS011;15664;51.302;7.744;2022-09-06T11:49:03;4.55;;;1.50;;
28431;SDS011;15664;51.302;7.744;2022-09-06T11:51:37;4.00;;;1.55;;
28431;SDS011;15664;51.302;7.744;2022-09-06T11:57:01;3.63;;;1.60;;
28431;SDS011;15664;51.302;7.744;2022-09-06T12:07:27;5.22;;;1.60;;
28431;SDS011;15664;51.302;7.744;2022-09-06T12:12:54;4.28;;;1.50;;
28431;SDS011;15664;51.302;7.744;2022-09-06T12:15:24;3.50;;;1.40;;
28431;SDS011;15664;51.302;7.744;2022-09-06T12:18:07;3.33;;;1.42;;
28431;SDS011;15664;51.302;7.744;2022-09-06T12:26:07;4.60;;;1.40;;
28431;SDS011;15664;51.302;7.744;2022-09-06T12:28:41;6.38;;;1.55;;
28431;SDS011;15664;51.302;7.744;2022-09-06T12:31:31;3.33;;;1.55;;
28431;SDS011;15664;51.302;7.744;2022-09-06T12:34:13;4.53;;;1.50;;
28431;SDS011;15664;51.302;7.744;2022-09-06T12:36:56;4.53;;;1.33;;
28431;SDS011;15664;51.302;7.744;2022-09-06T12:39:24;4.00;;;1.70;;
28431;SDS011;15664;51.302;7.744;2022-09-06T12:41:59;3.73;;;1.40;;
28431;SDS011;15664;51.302;7.744;2022-09-06T12:44:31;3.38;;;1.67;;
28431;SDS011;15664;51.302;7.744;2022-09-06T12:47:05;4.75;;;1.55;;
28431;SDS011;15664;51.302;7.744;2022-09-06T12:49:35;5.18;;;1.88;;
28431;SDS011;15664;51.302;7.744;2022-09-06T12:52:05;4.43;;;1.63;;
28431;SDS011;15664;51.302;7.744;2022-09-06T12:54:32;4.53;;;1.50;;
28431;SDS011;15664;51.302;7.744;2022-09-06T12:57:19;4.53;;;1.58;;
28431;SDS011;15664;51.302;7.744;2022-09-06T12:59:52;3.80;;;1.70;;
28431;SDS011;15664;51.302;7.744;2022-09-06T13:02:37;4.67;;;1.50;;
28431;SDS011;15664;51.302;7.744;2022-09-06T13:05:08;4.22;;;1.70;;
28431;SDS011;15664;51.302;7.744;2022-09-06T13:07:37;3.85;;;1.42;;
28431;SDS011;15664;51.302;7.744;2022-09-06T13:10:08;5.30;;;1.70;;
28431;SDS011;15664;51.302;7.744;2022-09-06T13:12:38;4.32;;;1.70;;
28431;SDS011;15664;51.302;7.744;2022-09-06T13:15:07;3.83;;;1.70;;
28431;SDS011;15664;51.302;7.744;2022-09-06T13:17:37;3.60;;;1.45;;
28431;SDS011;15664;51.302;7.744;2022-09-06T13:20:12;4.25;;;1.67;;
28431;SDS011;15664;51.302;7.744;2022-09-06T13:22:48;3.97;;;1.50;;
28431;SDS011;15664;51.302;7.744;2022-09-06T13:27:43;7.13;;;1.75;;
28431;SDS011;15664;51.302;7.744;2022-09-06T13:30:28;2.45;;;1.40;;
28431;SDS011;15664;51.302;7.744;2022-09-06T13:32:57;3.33;;;1.60;;
28431;SDS011;15664;51.302;7.744;2022-09-06T13:35:24;4.37;;;1.40;;
28431;SDS011;15664;51.302;7.744;2022-09-06T13:37:52;3.22;;;1.33;;
28431;SDS011;15664;51.302;7.744;2022-09-06T13:40:45;5.15;;;1.52;;
28431;SDS011;15664;51.302;7.744;2022-09-06T13:43:11;2.97;;;1.50;;
28431;SDS011;15664;51.302;7.744;2022-09-06T13:45:37;4.05;;;1.50;;
28431;SDS011;15664;51.302;7.744;2022-09-06T13:48:03;4.65;;;1.55;;
28431;SDS011;15664;51.302;7.744;2022-09-06T13:50:29;5.95;;;1.30;;
28431;SDS011;15664;51.302;7.744;2022-09-06T13:52:55;3.37;;;1.50;;
28431;SDS011;15664;51.302;7.744;2022-09-06T13:55:21;4.00;;;1.60;;
28431;SDS011;15664;51.302;7.744;2022-09-06T13:57:48;3.30;;;1.30;;
28431;SDS011;15664;51.302;7.744;2022-09-06T14:00:14;3.73;;;1.47;;
28431;SDS011;15664;51.302;7.744;2022-09-06T14:02:41;10.35;;;1.90;;
28431;SDS011;15664;51.302;7.744;2022-09-06T14:05:13;3.80;;;1.30;;
28431;SDS011;15664;51.302;7.744;2022-09-06T14:07:38;3.33;;;1.40;;
28431;SDS011;15664;51.302;7.744;2022-09-06T14:10:04;4.60;;;1.80;;
28431;SDS011;15664;51.302;7.744;2022-09-06T14:12:30;3.65;;;1.48;;
28431;SDS011;15664;51.302;7.744;2022-09-06T14:14:55;4.27;;;1.33;;
28431;SDS011;15664;51.302;7.744;2022-09-06T14:17:20;2.93;;;1.40;;
28431;SDS011;15664;51.302;7.744;2022-09-06T14:19:46;3.30;;;1.50;;
28431;SDS011;15664;51.302;7.744;2022-09-06T14:22:11;3.60;;;1.50;;
28431;SDS011;15664;51.302;7.744;2022-09-06T14:24:37;4.28;;;1.60;;
28431;SDS011;15664;51.302;7.744;2022-09-06T14:27:03;3.22;;;1.50;;
28431;SDS011;15664;51.302;7.744;2022-09-06T14:29:31;2.30;;;1.23;;
28431;SDS011;15664;51.302;7.744;2022-09-06T14:31:56;3.88;;;1.42;;
28431;SDS011;15664;51.302;7.744;2022-09-06T14:34:22;3.93;;;1.27;;
28431;SDS011;15664;51.302;7.744;2022-09-06T14:36:49;4.07;;;1.55;;
28431;SDS011;15664;51.302;7.744;2022-09-06T14:39:14;3.77;;;1.67;;
28431;SDS011;15664;51.302;7.744;2022-09-06T14:41:39;2.70;;;1.13;;
28431;SDS011;15664;51.302;7.744;2022-09-06T14:44:04;3.83;;;1.57;;
28431;SDS011;15664;51.302;7.744;2022-09-06T14:46:30;3.03;;;1.60;;
28431;SDS011;15664;51.302;7.744;2022-09-06T14:48:56;2.38;;;1.33;;
28431;SDS011;15664;51.302;7.744;2022-09-06T14:51:26;4.50;;;1.42;;
28431;SDS011;15664;51.302;7.744;2022-09-06T14:53:53;3.28;;;1.40;;
28431;SDS011;15664;51.302;7.744;2022-09-06T14:56:20;6.25;;;1.70;;
28431;SDS011;15664;51.302;7.744;2022-09-06T14:58:46;4.03;;;1.30;;
28431;SDS011;15664;51.302;7.744;2022-09-06T15:01:13;3.57;;;1.50;;
28431;SDS011;15664;51.302;7.744;2022-09-06T15:03:41;6.07;;;1.50;;
28431;SDS011;15664;51.302;7.744;2022-09-06T15:06:10;3.60;;;1.30;;
28431;SDS011;15664;51.302;7.744;2022-09-06T15:08:35;3.57;;;1.10;;
28431;SDS011;15664;51.302;7.744;2022-09-06T15:11:01;4.38;;;1.30;;
28431;SDS011;15664;51.302;7.744;2022-09-06T15:13:28;3.00;;;1.30;;
28431;SDS011;15664;51.302;7.744;2022-09-06T15:15:53;3.53;;;1.23;;
28431;SDS011;15664;51.302;7.744;2022-09-06T15:18:19;2.77;;;1.20;;
28431;SDS011;15664;51.302;7.744;2022-09-06T15:20:46;3.55;;;1.40;;
28431;SDS011;15664;51.302;7.744;2022-09-06T15:23:11;2.35;;;1.10;;
28431;SDS011;15664;51.302;7.744;2022-09-06T15:25:37;1.80;;;1.23;;
28431;SDS011;15664;51.302;7.744;2022-09-06T15:28:09;3.63;;;1.58;;
28431;SDS011;15664;51.302;7.744;2022-09-06T15:30:36;4.30;;;1.60;;
28431;SDS011;15664;51.302;7.744;2022-09-06T15:33:03;5.40;;;1.50;;
28431;SDS011;15664;51.302;7.744;2022-09-06T15:35:28;3.45;;;1.40;;
28431;SDS011;15664;51.302;7.744;2022-09-06T15:37:53;4.47;;;1.40;;
28431;SDS011;15664;51.302;7.744;2022-09-06T15:40:19;3.40;;;1.40;;
28431;SDS011;15664;51.302;7.744;2022-09-06T15:42:47;3.20;;;1.40;;
28431;SDS011;15664;51.302;7.744;2022-09-06T15:45:12;4.27;;;1.43;;
28431;SDS011;15664;51.302;7.744;2022-09-06T15:47:38;4.03;;;1.67;;
28431;SDS011;15664;51.302;7.744;2022-09-06T15:50:04;3.00;;;1.60;;
28431;SDS011;15664;51.302;7.744;2022-09-06T15:52:30;3.58;;;2.00;;
28431;SDS011;15664;51.302;7.744;2022-09-06T15:54:55;4.40;;;1.77;;
28431;SDS011;15664;51.302;7.744;2022-09-06T15:57:39;4.22;;;1.60;;
28431;SDS011;15664;51.302;7.744;2022-09-06T16:00:05;3.57;;;1.60;;
28431;SDS011;15664;51.302;7.744;2022-09-06T16:02:30;3.95;;;1.63;;
28431;SDS011;15664;51.302;7.744;2022-09-06T16:04:56;3.57;;;1.60;;
28431;SDS011;15664;51.302;7.744;2022-09-06T16:07:21;4.20;;;1.53;;
28431;SDS011;15664;51.302;7.744;2022-09-06T16:09:47;3.63;;;1.40;;
28431;SDS011;15664;51.302;7.744;2022-09-06T16:12:12;3.30;;;1.37;;
28431;SDS011;15664;51.302;7.744;2022-09-06T16:14:38;4.30;;;1.60;;
28431;SDS011;15664;51.302;7.744;2022-09-06T16:17:03;4.20;;;1.67;;
28431;SDS011;15664;51.302;7.744;2022-09-06T16:19:28;3.67;;;1.40;;
28431;SDS011;15664;51.302;7.744;2022-09-06T16:21:54;4.47;;;1.30;;
28431;SDS011;15664;51.302;7.744;2022-09-06T16:24:19;2.70;;;1.60;;
28431;SDS011;15664;51.302;7.744;2022-09-06T16:26:45;4.97;;;1.60;;
28431;SDS011;15664;51.302;7.744;2022-09-06T16:29:11;3.80;;;1.77;;
28431;SDS011;15664;51.302;7.744;2022-09-06T16:31:38;4.20;;;1.80;;
28431;SDS011;15664;51.302;7.744;2022-09-06T16:34:03;3.17;;;1.57;;
28431;SDS011;15664;51.302;7.744;2022-09-06T16:36:28;4.50;;;1.60;;